createdAt,value
2017-03-15T00:00:28.424Z,9.96
2017-03-15T00:01:39.467Z,9.95
2017-03-15T00:02:50.472Z,9.98
2017-03-15T00:04:01.468Z,9.95
2017-03-15T00:05:12.664Z,10.02
2017-03-15T00:06:24.060Z,9.9
2017-03-15T00:07:35.115Z,9.98
2017-03-15T00:08:46.102Z,9.96
2017-03-15T00:09:57.099Z,9.82
2017-03-15T00:11:08.090Z,9.92
2017-03-15T00:12:19.073Z,9.84
2017-03-15T00:13:30.527Z,9.92
2017-03-15T00:14:41.529Z,9.85
2017-03-15T00:15:52.517Z,9.88
2017-03-15T00:17:03.520Z,9.85
2017-03-15T00:18:14.521Z,9.85
2017-03-15T00:19:25.566Z,9.84
2017-03-15T00:20:36.761Z,9.84
2017-03-15T00:21:47.786Z,9.82
2017-03-15T00:22:58.785Z,9.88
2017-03-15T00:24:09.783Z,9.85
2017-03-15T00:25:21.023Z,9.85
2017-03-15T00:26:32.229Z,9.85
2017-03-15T00:27:43.636Z,9.75
2017-03-15T00:28:54.633Z,9.78
2017-03-15T00:30:05.634Z,9.78
2017-03-15T00:31:16.877Z,9.74
2017-03-15T00:32:27.863Z,9.74
2017-03-15T00:33:38.864Z,9.85
2017-03-15T00:34:50.255Z,9.75
2017-03-15T00:36:01.253Z,9.84
2017-03-15T00:37:12.299Z,9.82
2017-03-15T00:38:23.286Z,9.74
2017-03-15T00:39:34.274Z,9.78
2017-03-15T00:40:45.272Z,9.85
2017-03-15T00:41:56.309Z,9.88
2017-03-15T00:43:07.358Z,9.8
2017-03-15T00:44:18.347Z,9.8
2017-03-15T00:45:29.342Z,9.84
2017-03-15T00:46:40.347Z,9.88
2017-03-15T00:47:51.340Z,9.81
2017-03-15T00:49:02.383Z,9.84
2017-03-15T00:50:13.388Z,9.75
2017-03-15T00:51:24.387Z,9.75
2017-03-15T00:52:35.383Z,9.78
2017-03-15T00:53:46.379Z,9.8
2017-03-15T00:54:57.619Z,9.81
2017-03-15T00:56:08.828Z,9.74
2017-03-15T00:57:19.829Z,9.77
2017-03-15T00:58:30.824Z,9.81
2017-03-15T00:59:41.830Z,9.75
2017-03-15T01:00:52.821Z,9.74
2017-03-15T01:02:03.816Z,9.88
2017-03-15T01:03:14.808Z,9.9
2017-03-15T01:04:25.811Z,9.88
2017-03-15T01:05:37.051Z,9.85
2017-03-15T01:06:48.052Z,9.88
2017-03-15T01:07:59.060Z,9.9
2017-03-15T01:09:10.052Z,9.85
2017-03-15T01:10:21.038Z,9.82
2017-03-15T01:11:32.092Z,9.9
2017-03-15T01:12:43.089Z,9.88
2017-03-15T01:13:54.282Z,9.88
2017-03-15T01:15:05.277Z,9.88
2017-03-15T01:16:16.466Z,9.88
2017-03-15T01:17:27.716Z,9.89
2017-03-15T01:18:39.121Z,9.81
2017-03-15T01:19:50.314Z,9.88
2017-03-15T01:21:01.312Z,9.88
2017-03-15T01:22:12.320Z,9.85
2017-03-15T01:23:23.373Z,9.82
2017-03-15T01:24:34.367Z,9.82
2017-03-15T01:25:45.361Z,9.88
2017-03-15T01:26:56.562Z,9.82
2017-03-15T01:28:07.758Z,9.95
2017-03-15T01:29:18.815Z,9.93
2017-03-15T01:30:30.009Z,9.85
2017-03-15T01:31:41.211Z,9.84
2017-03-15T01:32:52.205Z,9.85
2017-03-15T01:34:03.212Z,9.92
2017-03-15T01:35:14.259Z,9.93
2017-03-15T01:36:25.246Z,9.88
2017-03-15T01:37:36.251Z,9.89
2017-03-15T01:38:47.252Z,9.85
2017-03-15T01:39:58.260Z,9.82
2017-03-15T01:41:09.298Z,9.85
2017-03-15T01:42:20.298Z,9.88
2017-03-15T01:43:31.305Z,9.89
2017-03-15T01:44:42.539Z,9.98
2017-03-15T01:45:53.534Z,9.85
2017-03-15T01:47:04.774Z,9.88
2017-03-15T01:48:15.776Z,9.88
2017-03-15T01:49:26.777Z,9.95
2017-03-15T01:50:38.174Z,9.98
2017-03-15T01:51:49.184Z,9.88
2017-03-15T01:53:00.225Z,9.92
2017-03-15T01:54:11.218Z,9.95
2017-03-15T01:55:22.617Z,9.96
2017-03-15T01:56:33.831Z,9.92
2017-03-15T01:57:44.840Z,9.9
2017-03-15T01:58:56.085Z,9.88
2017-03-15T02:00:07.084Z,9.88
2017-03-15T02:01:18.076Z,9.9
2017-03-15T02:02:29.076Z,9.88
2017-03-15T02:03:40.080Z,9.89
2017-03-15T02:04:51.131Z,9.92
2017-03-15T02:06:02.118Z,9.95
2017-03-15T02:07:13.111Z,10
2017-03-15T02:08:24.108Z,9.9
2017-03-15T02:09:35.308Z,9.93
2017-03-15T02:10:46.358Z,9.93
2017-03-15T02:11:57.556Z,9.89
2017-03-15T02:13:08.757Z,9.88
2017-03-15T02:14:19.950Z,9.88
2017-03-15T02:15:31.147Z,10
2017-03-15T02:16:42.393Z,9.96
2017-03-15T02:17:53.599Z,9.96
2017-03-15T02:19:04.785Z,9.95
2017-03-15T02:20:15.777Z,9.96
2017-03-15T02:21:26.774Z,9.96
2017-03-15T02:22:37.824Z,9.95
2017-03-15T02:23:48.824Z,10.02
2017-03-15T02:24:59.823Z,10.03
2017-03-15T02:26:10.828Z,10
2017-03-15T02:27:21.826Z,9.99
2017-03-15T02:28:32.874Z,9.99
2017-03-15T02:29:43.875Z,9.98
2017-03-15T02:30:55.276Z,10
2017-03-15T02:32:06.268Z,10.02
2017-03-15T02:33:17.455Z,9.96
2017-03-15T02:34:28.695Z,9.99
2017-03-15T02:35:39.676Z,9.82
2017-03-15T02:36:50.683Z,9.95
2017-03-15T02:38:01.683Z,9.98
2017-03-15T02:39:12.674Z,9.88
2017-03-15T02:40:23.728Z,9.95
2017-03-15T02:41:34.723Z,9.85
2017-03-15T02:42:45.938Z,9.81
2017-03-15T02:43:56.946Z,9.85
2017-03-15T02:45:07.945Z,9.81
2017-03-15T02:46:19.193Z,9.88
2017-03-15T02:47:30.397Z,9.88
2017-03-15T02:48:41.399Z,9.85
2017-03-15T02:49:52.393Z,9.93
2017-03-15T02:51:03.388Z,9.85
2017-03-15T02:52:14.640Z,9.9
2017-03-15T02:53:25.646Z,9.85
2017-03-15T02:54:36.639Z,9.85
2017-03-15T02:55:47.640Z,9.82
2017-03-15T02:56:58.633Z,9.84
2017-03-15T02:58:09.680Z,9.89
2017-03-15T02:59:20.885Z,9.88
2017-03-15T03:00:31.884Z,9.9
2017-03-15T03:01:43.078Z,9.88
2017-03-15T03:02:54.273Z,9.88
2017-03-15T03:04:05.511Z,9.8
2017-03-15T03:05:16.511Z,9.81
2017-03-15T03:06:27.538Z,9.75
2017-03-15T03:07:38.534Z,9.8
2017-03-15T03:08:49.529Z,9.77
2017-03-15T03:10:00.585Z,9.78
2017-03-15T03:11:11.585Z,9.81
2017-03-15T03:12:22.588Z,9.78
2017-03-15T03:13:33.782Z,9.75
2017-03-15T03:14:44.771Z,9.8
2017-03-15T03:15:55.769Z,9.88
2017-03-15T03:17:06.772Z,9.78
2017-03-15T03:18:17.759Z,9.75
2017-03-15T03:19:28.748Z,9.64
2017-03-15T03:20:40.203Z,9.81
2017-03-15T03:21:51.196Z,9.74
2017-03-15T03:23:02.209Z,9.72
2017-03-15T03:24:13.407Z,9.66
2017-03-15T03:25:24.597Z,9.71
2017-03-15T03:26:35.647Z,9.66
2017-03-15T03:27:46.654Z,9.7
2017-03-15T03:28:57.848Z,9.63
2017-03-15T03:30:08.851Z,9.64
2017-03-15T03:31:19.856Z,9.66
2017-03-15T03:32:30.913Z,9.64
2017-03-15T03:33:42.105Z,9.59
2017-03-15T03:34:53.110Z,9.64
2017-03-15T03:36:04.307Z,9.56
2017-03-15T03:37:15.505Z,9.59
2017-03-15T03:38:26.752Z,9.52
2017-03-15T03:39:37.945Z,9.59
2017-03-15T03:40:48.944Z,9.55
2017-03-15T03:41:59.937Z,9.66
2017-03-15T03:43:10.922Z,9.52
2017-03-15T03:44:22.171Z,9.55
2017-03-15T03:45:33.165Z,9.67
2017-03-15T03:46:44.158Z,9.57
2017-03-15T03:47:55.147Z,9.55
2017-03-15T03:49:06.146Z,9.55
2017-03-15T03:50:17.597Z,9.59
2017-03-15T03:51:28.809Z,9.57
2017-03-15T03:52:39.793Z,9.6
2017-03-15T03:53:50.991Z,9.57
2017-03-15T03:55:01.984Z,9.59
2017-03-15T03:56:13.031Z,9.53
2017-03-15T03:57:24.034Z,9.57
2017-03-15T03:58:35.029Z,9.47
2017-03-15T03:59:46.021Z,9.52
2017-03-15T04:00:57.217Z,9.55
2017-03-15T04:02:08.676Z,9.57
2017-03-15T04:03:19.666Z,9.52
2017-03-15T04:04:30.678Z,9.55
2017-03-15T04:05:41.670Z,9.53
2017-03-15T04:06:52.656Z,9.52
2017-03-15T04:08:03.700Z,9.5
2017-03-15T04:09:14.699Z,9.53
2017-03-15T04:10:25.701Z,9.55
2017-03-15T04:11:36.697Z,9.57
2017-03-15T04:12:47.722Z,9.59
2017-03-15T04:13:58.775Z,9.48
2017-03-15T04:15:09.779Z,9.56
2017-03-15T04:16:20.771Z,9.53
2017-03-15T04:17:31.797Z,9.48
2017-03-15T04:18:42.784Z,9.39
2017-03-15T04:19:53.836Z,9.41
2017-03-15T04:21:05.034Z,9.42
2017-03-15T04:22:16.042Z,9.44
2017-03-15T04:23:27.044Z,9.42
2017-03-15T04:24:38.029Z,9.44
2017-03-15T04:25:49.069Z,9.38
2017-03-15T04:27:00.055Z,9.39
2017-03-15T04:28:11.055Z,9.35
2017-03-15T04:29:22.060Z,9.32
2017-03-15T04:30:33.066Z,9.29
2017-03-15T04:31:44.114Z,9.3
2017-03-15T04:32:55.105Z,9.35
2017-03-15T04:34:06.104Z,9.34
2017-03-15T04:35:17.090Z,9.24
2017-03-15T04:36:28.098Z,9.21
2017-03-15T04:37:39.149Z,9.27
2017-03-15T04:38:50.341Z,9.21
2017-03-15T04:40:01.349Z,9.23
2017-03-15T04:41:12.753Z,9.23
2017-03-15T04:42:23.946Z,9.14
2017-03-15T04:43:34.994Z,9.19
2017-03-15T04:44:45.980Z,9.21
2017-03-15T04:45:56.977Z,9.19
2017-03-15T04:47:07.980Z,9.2
2017-03-15T04:48:18.972Z,9.17
2017-03-15T04:49:30.220Z,9.17
2017-03-15T04:50:41.225Z,9.16
2017-03-15T04:51:52.422Z,9.17
2017-03-15T04:53:03.423Z,9.16
2017-03-15T04:54:14.424Z,9.16
2017-03-15T04:55:25.489Z,9.11
2017-03-15T04:56:36.480Z,9.12
2017-03-15T04:57:47.468Z,9.11
2017-03-15T04:58:58.455Z,9.12
2017-03-15T05:00:09.650Z,9.19
2017-03-15T05:01:20.897Z,9.11
2017-03-15T05:02:31.890Z,9.16
2017-03-15T05:03:42.891Z,9.11
2017-03-15T05:04:53.891Z,9.16
2017-03-15T05:06:04.892Z,9.17
2017-03-15T05:07:15.880Z,9.16
2017-03-15T05:08:26.880Z,9.19
2017-03-15T05:09:37.875Z,9.04
2017-03-15T05:10:48.874Z,9.08
2017-03-15T05:12:00.117Z,9.04
2017-03-15T05:13:11.113Z,9.11
2017-03-15T05:14:22.095Z,9.05
2017-03-15T05:15:33.095Z,9.09
2017-03-15T05:16:44.089Z,9.08
2017-03-15T05:17:55.135Z,9.12
2017-03-15T05:19:06.138Z,9.09
2017-03-15T05:20:17.139Z,9.03
2017-03-15T05:21:28.132Z,9.11
2017-03-15T05:22:39.138Z,9.11
2017-03-15T05:23:50.187Z,9.17
2017-03-15T05:25:01.188Z,9.16
2017-03-15T05:26:12.373Z,9.04
2017-03-15T05:27:23.785Z,9.14
2017-03-15T05:28:34.990Z,9.11
2017-03-15T05:29:46.042Z,9.14
2017-03-15T05:30:57.042Z,9.16
2017-03-15T05:32:08.249Z,9.11
2017-03-15T05:33:19.251Z,9.16
2017-03-15T05:34:30.473Z,9.08
2017-03-15T05:35:41.722Z,9.11
2017-03-15T05:36:52.718Z,9.11
2017-03-15T05:38:03.706Z,9.12
2017-03-15T05:39:14.702Z,9.16
2017-03-15T05:40:25.903Z,9.16
2017-03-15T05:41:36.937Z,9.16
2017-03-15T05:42:47.925Z,9.2
2017-03-15T05:43:59.125Z,9.09
2017-03-15T05:45:10.127Z,9.09
2017-03-15T05:46:21.125Z,9.17
2017-03-15T05:47:32.368Z,9.16
2017-03-15T05:48:43.364Z,9.2
2017-03-15T05:49:54.360Z,9.09
2017-03-15T05:51:05.570Z,9.12
2017-03-15T05:52:16.557Z,9.14
2017-03-15T05:53:27.608Z,9.08
2017-03-15T05:54:38.617Z,9.08
2017-03-15T05:55:49.824Z,9.16
2017-03-15T05:57:00.807Z,9.17
2017-03-15T05:58:11.827Z,9.17
2017-03-15T05:59:23.081Z,9.16
2017-03-15T06:00:34.082Z,9.2
2017-03-15T06:01:45.078Z,9.16
2017-03-15T06:02:56.076Z,9.2
2017-03-15T06:04:07.266Z,9.14
2017-03-15T06:05:18.509Z,9.19
2017-03-15T06:06:29.501Z,9.11
2017-03-15T06:07:40.500Z,9.19
2017-03-15T06:08:51.495Z,9.17
2017-03-15T06:10:02.496Z,9.11
2017-03-15T06:11:13.544Z,9.26
2017-03-15T06:12:24.743Z,9.14
2017-03-15T06:13:35.735Z,9.21
2017-03-15T06:14:46.739Z,9.27
2017-03-15T06:15:57.745Z,9.23
2017-03-15T06:17:08.781Z,9.26
2017-03-15T06:18:19.781Z,9.3
2017-03-15T06:19:30.779Z,9.34
2017-03-15T06:20:41.971Z,9.3
2017-03-15T06:21:53.167Z,9.32
2017-03-15T06:23:04.205Z,9.27
2017-03-15T06:24:15.209Z,9.32
2017-03-15T06:25:26.253Z,9.29
2017-03-15T06:26:37.269Z,9.29
2017-03-15T06:27:48.278Z,9.34
2017-03-15T06:28:59.524Z,9.29
2017-03-15T06:30:10.725Z,9.29
2017-03-15T06:31:21.916Z,9.29
2017-03-15T06:32:32.923Z,9.35
2017-03-15T06:33:43.920Z,9.35
2017-03-15T06:34:54.999Z,9.34
2017-03-15T06:36:06.002Z,9.35
2017-03-15T06:37:16.999Z,9.41
2017-03-15T06:38:28.006Z,9.37
2017-03-15T06:39:39.008Z,9.38
2017-03-15T06:40:50.062Z,9.38
2017-03-15T06:42:01.062Z,9.41
2017-03-15T06:43:12.263Z,9.39
2017-03-15T06:44:23.257Z,9.44
2017-03-15T06:45:34.261Z,9.44
2017-03-15T06:46:45.513Z,9.44
2017-03-15T06:47:56.503Z,9.45
2017-03-15T06:49:07.701Z,9.45
2017-03-15T06:50:18.704Z,9.44
2017-03-15T06:51:29.902Z,9.5
2017-03-15T06:52:40.941Z,9.57
2017-03-15T06:53:51.934Z,9.55
2017-03-15T06:55:02.936Z,9.53
2017-03-15T06:56:14.133Z,9.59
2017-03-15T06:57:25.135Z,9.56
2017-03-15T06:58:36.388Z,9.62
2017-03-15T06:59:47.373Z,9.72
2017-03-15T07:00:58.368Z,9.75
2017-03-15T07:02:09.351Z,9.77
2017-03-15T07:03:20.549Z,9.88
2017-03-15T07:04:31.601Z,10.05
2017-03-15T07:05:42.586Z,10.13
2017-03-15T07:06:53.586Z,10.32
2017-03-15T07:08:04.580Z,10.38
2017-03-15T07:09:15.579Z,10.49
2017-03-15T07:10:26.631Z,10.61
2017-03-15T07:11:37.625Z,10.7
2017-03-15T07:12:48.620Z,10.75
2017-03-15T07:13:59.630Z,10.94
2017-03-15T07:15:10.638Z,10.94
2017-03-15T07:16:21.697Z,11.1
2017-03-15T07:17:32.699Z,11
2017-03-15T07:18:43.697Z,11.02
2017-03-15T07:19:54.690Z,11.03
2017-03-15T07:21:05.703Z,11.05
2017-03-15T07:22:16.777Z,10.98
2017-03-15T07:23:27.776Z,11.08
2017-03-15T07:24:38.773Z,11.03
2017-03-15T07:25:49.971Z,10.83
2017-03-15T07:27:00.969Z,10.91
2017-03-15T07:28:12.215Z,10.87
2017-03-15T07:29:23.221Z,10.9
2017-03-15T07:30:34.224Z,10.87
2017-03-15T07:31:45.230Z,10.87
2017-03-15T07:32:56.228Z,10.94
2017-03-15T07:34:07.284Z,10.88
2017-03-15T07:35:18.276Z,10.84
2017-03-15T07:36:29.275Z,10.8
2017-03-15T07:37:40.278Z,10.77
2017-03-15T07:38:51.283Z,10.76
2017-03-15T07:40:02.532Z,10.76
2017-03-15T07:41:13.733Z,10.83
2017-03-15T07:42:24.744Z,10.87
2017-03-15T07:43:35.740Z,10.9
2017-03-15T07:44:46.770Z,10.98
2017-03-15T07:45:57.820Z,10.88
2017-03-15T07:47:08.818Z,10.9
2017-03-15T07:48:19.817Z,10.84
2017-03-15T07:49:30.820Z,10.97
2017-03-15T07:50:42.069Z,11.08
2017-03-15T07:51:53.079Z,11.1
2017-03-15T07:53:04.074Z,11
2017-03-15T07:54:15.104Z,11.03
2017-03-15T07:55:26.106Z,11.2
2017-03-15T07:56:37.187Z,11.31
2017-03-15T07:57:48.385Z,11.52
2017-03-15T07:58:59.578Z,11.81
2017-03-15T08:00:10.585Z,12.11
2017-03-15T08:01:21.787Z,12.28
2017-03-15T08:02:33.045Z,12.26
2017-03-15T08:03:44.478Z,12.52
2017-03-15T08:04:55.481Z,12.7
2017-03-15T08:06:06.490Z,12.96
2017-03-15T08:07:17.494Z,13.21
2017-03-15T08:08:28.566Z,13.39
2017-03-15T08:09:39.571Z,13.45
2017-03-15T08:10:50.776Z,13.69
2017-03-15T08:12:01.969Z,13.63
2017-03-15T08:13:12.979Z,13.79
2017-03-15T08:14:24.241Z,13.81
2017-03-15T08:15:35.249Z,13.83
2017-03-15T08:16:46.254Z,13.79
2017-03-15T08:17:57.269Z,13.79
2017-03-15T08:19:08.268Z,13.78
2017-03-15T08:20:19.523Z,13.81
2017-03-15T08:21:30.528Z,13.88
2017-03-15T08:22:41.526Z,13.9
2017-03-15T08:23:52.522Z,14.03
2017-03-15T08:25:03.736Z,14.02
2017-03-15T08:26:14.805Z,14.05
2017-03-15T08:27:25.813Z,14.06
2017-03-15T08:28:36.822Z,14.03
2017-03-15T08:29:47.824Z,14.08
2017-03-15T08:30:58.823Z,14.08
2017-03-15T08:32:09.873Z,14.15
2017-03-15T08:33:21.080Z,14.2
2017-03-15T08:34:32.091Z,14.28
2017-03-15T08:35:43.288Z,14.31
2017-03-15T08:36:54.293Z,14.21
2017-03-15T08:38:05.352Z,14.19
2017-03-15T08:39:16.757Z,14.13
2017-03-15T08:40:27.956Z,14.03
2017-03-15T08:41:38.948Z,14.06
2017-03-15T08:42:49.952Z,14.02
2017-03-15T08:44:01.009Z,14.23
2017-03-15T08:45:12.012Z,14.27
2017-03-15T08:46:23.223Z,14.26
2017-03-15T08:47:34.430Z,14.26
2017-03-15T08:48:45.427Z,14.34
2017-03-15T08:49:56.699Z,14.41
2017-03-15T08:51:07.702Z,14.33
2017-03-15T08:52:18.697Z,14.51
2017-03-15T08:53:29.700Z,14.63
2017-03-15T08:54:40.716Z,14.71
2017-03-15T08:55:51.770Z,14.89
2017-03-15T08:57:02.773Z,15.04
2017-03-15T08:58:13.770Z,15.19
2017-03-15T08:59:24.771Z,15.2
2017-03-15T09:00:35.781Z,15.13
2017-03-15T09:01:47.033Z,15.08
2017-03-15T09:02:58.228Z,15.19
2017-03-15T09:04:09.226Z,15.15
2017-03-15T09:05:20.223Z,15.1
2017-03-15T09:06:31.443Z,15.18
2017-03-15T09:07:42.496Z,15.13
2017-03-15T09:08:53.495Z,14.97
2017-03-15T09:10:04.505Z,14.98
2017-03-15T09:11:15.502Z,15.19
2017-03-15T09:12:26.698Z,15.19
2017-03-15T09:13:37.951Z,15.22
2017-03-15T09:14:49.157Z,15.27
2017-03-15T09:16:00.167Z,15.33
2017-03-15T09:17:11.166Z,15.49
2017-03-15T09:18:22.379Z,15.4
2017-03-15T09:19:33.646Z,15.44
2017-03-15T09:20:44.660Z,15.45
2017-03-15T09:21:55.661Z,15.43
2017-03-15T09:23:06.670Z,15.37
2017-03-15T09:24:17.886Z,15.34
2017-03-15T09:25:29.143Z,15.37
2017-03-15T09:26:40.342Z,15.41
2017-03-15T09:27:51.343Z,15.49
2017-03-15T09:29:02.344Z,15.47
2017-03-15T09:30:13.348Z,15.49
2017-03-15T09:31:24.602Z,15.51
2017-03-15T09:32:35.818Z,15.53
2017-03-15T09:33:46.821Z,15.55
2017-03-15T09:34:58.034Z,15.43
2017-03-15T09:36:09.039Z,15.58
2017-03-15T09:37:20.098Z,15.74
2017-03-15T09:38:31.302Z,15.8
2017-03-15T09:39:42.307Z,15.89
2017-03-15T09:40:53.506Z,15.86
2017-03-15T09:42:04.510Z,15.83
2017-03-15T09:43:15.967Z,15.86
2017-03-15T09:44:26.967Z,15.91
2017-03-15T09:45:37.969Z,15.84
2017-03-15T09:46:48.978Z,15.95
2017-03-15T09:48:00.185Z,16.07
2017-03-15T09:49:11.235Z,16.17
2017-03-15T09:50:22.238Z,16.32
2017-03-15T09:51:33.235Z,16.32
2017-03-15T09:52:44.239Z,16.39
2017-03-15T09:53:55.239Z,16.52
2017-03-15T09:55:06.286Z,16.4
2017-03-15T09:56:17.283Z,16.49
2017-03-15T09:57:28.287Z,16.52
2017-03-15T09:58:39.292Z,16.52
2017-03-15T09:59:50.495Z,16.47
2017-03-15T10:01:01.491Z,16.47
2017-03-15T10:02:12.499Z,16.54
2017-03-15T10:03:23.701Z,16.52
2017-03-15T10:04:34.896Z,16.65
2017-03-15T10:05:45.960Z,16.65
2017-03-15T10:06:57.365Z,16.65
2017-03-15T10:08:08.373Z,16.57
2017-03-15T10:09:19.574Z,16.49
2017-03-15T10:10:30.579Z,16.57
2017-03-15T10:11:41.837Z,16.72
2017-03-15T10:12:52.837Z,16.99
2017-03-15T10:14:03.839Z,17.1
2017-03-15T10:15:14.836Z,17.13
2017-03-15T10:16:25.838Z,17.25
2017-03-15T10:17:37.092Z,17.31
2017-03-15T10:18:48.088Z,17.4
2017-03-15T10:19:59.086Z,17.47
2017-03-15T10:21:10.091Z,17.73
2017-03-15T10:22:21.095Z,17.99
2017-03-15T10:23:32.146Z,18.06
2017-03-15T10:24:43.758Z,18.11
2017-03-15T10:25:54.949Z,18.36
2017-03-15T10:27:06.155Z,18.63
2017-03-15T10:28:17.201Z,18.74
2017-03-15T10:29:28.664Z,19.02
2017-03-15T10:30:39.672Z,18.94
2017-03-15T10:31:50.688Z,18.93
2017-03-15T10:33:01.691Z,18.81
2017-03-15T10:34:12.905Z,18.68
2017-03-15T10:35:23.962Z,18.57
2017-03-15T10:36:34.966Z,18.32
2017-03-15T10:37:46.382Z,18.32
2017-03-15T10:38:57.339Z,18.29
2017-03-15T10:40:08.345Z,18.41
2017-03-15T10:41:19.605Z,18.5
2017-03-15T10:42:30.607Z,18.56
2017-03-15T10:43:41.616Z,18.75
2017-03-15T10:44:52.623Z,18.9
2017-03-15T10:46:03.638Z,19.06
2017-03-15T10:47:14.700Z,19.25
2017-03-15T10:48:25.708Z,19.46
2017-03-15T10:49:36.906Z,19.68
2017-03-15T10:50:48.342Z,19.9
2017-03-15T10:51:59.352Z,20.07
2017-03-15T10:53:10.617Z,20.3
2017-03-15T10:54:21.833Z,20.37
2017-03-15T10:55:33.033Z,20.56
2017-03-15T10:56:44.240Z,20.53
2017-03-15T10:57:55.442Z,20.68
2017-03-15T10:59:06.505Z,20.83
2017-03-15T11:00:17.535Z,20.98
2017-03-15T11:01:28.543Z,20.93
2017-03-15T11:02:39.552Z,20.94
2017-03-15T11:03:50.560Z,20.79
2017-03-15T11:05:01.621Z,20.72
2017-03-15T11:06:12.835Z,20.68
2017-03-15T11:07:24.058Z,20.71
2017-03-15T11:08:35.285Z,20.85
2017-03-15T11:09:46.290Z,20.79
2017-03-15T11:10:57.545Z,20.71
2017-03-15T11:12:08.752Z,20.3
2017-03-15T11:13:19.771Z,20.2
2017-03-15T11:14:30.983Z,20.11
2017-03-15T11:15:41.996Z,20.05
2017-03-15T11:16:53.248Z,20
2017-03-15T11:18:04.260Z,20.08
2017-03-15T11:19:15.262Z,20.22
2017-03-15T11:20:26.270Z,20.1
2017-03-15T11:21:37.274Z,20.15
2017-03-15T11:22:48.735Z,19.98
2017-03-15T11:23:59.737Z,19.8
2017-03-15T11:25:10.949Z,19.63
2017-03-15T11:26:22.158Z,19.49
2017-03-15T11:27:33.171Z,19.47
2017-03-15T11:28:44.420Z,19.45
2017-03-15T11:29:55.424Z,19.5
2017-03-15T11:31:06.636Z,19.64
2017-03-15T11:32:17.641Z,19.68
2017-03-15T11:33:28.849Z,19.68
2017-03-15T11:34:40.336Z,19.78
2017-03-15T11:35:51.340Z,19.93
2017-03-15T11:37:02.338Z,19.86
2017-03-15T11:38:13.344Z,19.56
2017-03-15T11:39:24.347Z,19.61
2017-03-15T11:40:35.398Z,19.49
2017-03-15T11:41:46.599Z,19.34
2017-03-15T11:42:57.809Z,19.28
2017-03-15T11:44:08.816Z,19.1
2017-03-15T11:45:19.827Z,18.72
2017-03-15T11:46:30.886Z,18.49
2017-03-15T11:47:41.895Z,18.49
2017-03-15T11:48:52.901Z,18.47
2017-03-15T11:50:03.903Z,18.6
2017-03-15T11:51:14.899Z,18.79
2017-03-15T11:52:25.945Z,18.84
2017-03-15T11:53:36.948Z,19.07
2017-03-15T11:54:47.949Z,19.13
2017-03-15T11:55:58.950Z,19.13
2017-03-15T11:57:09.957Z,19.07
2017-03-15T11:58:21.204Z,18.9
2017-03-15T11:59:32.202Z,18.86
2017-03-15T12:00:43.400Z,18.79
2017-03-15T12:01:54.405Z,18.99
2017-03-15T12:03:05.410Z,19.24
2017-03-15T12:04:16.660Z,19.47
2017-03-15T12:05:27.858Z,19.45
2017-03-15T12:06:38.866Z,19.46
2017-03-15T12:07:49.870Z,19.35
2017-03-15T12:09:02.390Z,19.28
2017-03-15T12:10:14.965Z,19.24
2017-03-15T12:11:25.980Z,19.28
2017-03-15T12:12:41.750Z,19.06
2017-03-15T12:13:54.272Z,18.96
2017-03-15T12:15:05.825Z,18.9
2017-03-15T12:16:20.118Z,18.96
2017-03-15T12:17:32.399Z,19.12
2017-03-15T12:18:43.899Z,19.23
2017-03-15T12:19:57.613Z,19.43
2017-03-15T12:21:11.529Z,19.61
2017-03-15T12:22:23.375Z,19.61
2017-03-15T12:23:36.162Z,19.12
2017-03-15T12:24:48.458Z,19.12
2017-03-15T12:26:00.128Z,19.05
2017-03-15T12:27:11.804Z,19.09
2017-03-15T12:28:23.055Z,19.28
2017-03-15T12:29:34.683Z,19.24
2017-03-15T12:30:49.063Z,19.2
2017-03-15T12:32:02.557Z,19.23
2017-03-15T12:33:16.329Z,19.45
2017-03-15T12:34:29.923Z,19.63
2017-03-15T12:35:42.774Z,19.6
2017-03-15T12:36:58.260Z,19.53
2017-03-15T12:38:11.770Z,19.49
2017-03-15T12:39:23.330Z,19.43
2017-03-15T12:40:34.339Z,19.37
2017-03-15T12:41:45.540Z,19.31
2017-03-15T12:42:56.801Z,19.34
2017-03-15T12:44:07.819Z,19.46
2017-03-15T12:45:18.822Z,19.34
2017-03-15T12:46:30.230Z,19.16
2017-03-15T12:47:41.231Z,19.12
2017-03-15T12:48:52.275Z,19.24
2017-03-15T12:50:03.272Z,19.1
2017-03-15T12:51:14.276Z,19.2
2017-03-15T12:52:25.272Z,19.23
2017-03-15T12:53:36.279Z,19.15
2017-03-15T12:54:47.529Z,19.38
2017-03-15T12:55:58.532Z,19.46
2017-03-15T12:57:09.538Z,19.55
2017-03-15T12:58:20.946Z,19.53
2017-03-15T12:59:31.948Z,19.46
2017-03-15T13:00:42.940Z,19.56
2017-03-15T13:01:54.148Z,19.25
2017-03-15T13:03:05.750Z,19.12
2017-03-15T13:04:16.749Z,19.16
2017-03-15T13:05:28.098Z,19.24
2017-03-15T13:06:39.514Z,19
2017-03-15T13:07:50.515Z,18.96
2017-03-15T13:09:01.714Z,18.94
2017-03-15T13:10:12.699Z,18.97
2017-03-15T13:11:23.746Z,18.99
2017-03-15T13:12:34.746Z,18.89
2017-03-15T13:13:45.745Z,19.02
2017-03-15T13:14:56.946Z,18.93
2017-03-15T13:16:07.951Z,18.96
2017-03-15T13:17:19.026Z,18.93
2017-03-15T13:18:30.029Z,18.86
2017-03-15T13:19:41.028Z,18.76
2017-03-15T13:20:52.028Z,18.82
2017-03-15T13:22:03.426Z,18.74
2017-03-15T13:23:14.473Z,18.71
2017-03-15T13:24:25.468Z,18.68
2017-03-15T13:25:36.675Z,18.5
2017-03-15T13:26:47.677Z,18.31
2017-03-15T13:27:58.902Z,18.19
2017-03-15T13:29:10.160Z,17.98
2017-03-15T13:30:21.155Z,17.81
2017-03-15T13:31:32.172Z,17.74
2017-03-15T13:32:43.167Z,17.54
2017-03-15T13:33:54.167Z,17.47
2017-03-15T13:35:05.214Z,17.5
2017-03-15T13:36:16.218Z,17.39
2017-03-15T13:37:27.217Z,17.47
2017-03-15T13:38:38.210Z,17.38
2017-03-15T13:39:49.208Z,17.36
2017-03-15T13:41:00.256Z,17.47
2017-03-15T13:42:11.249Z,17.54
2017-03-15T13:43:22.243Z,17.66
2017-03-15T13:44:33.237Z,17.57
2017-03-15T13:45:44.434Z,17.49
2017-03-15T13:46:55.475Z,17.47
2017-03-15T13:48:06.668Z,17.4
2017-03-15T13:49:17.666Z,17.42
2017-03-15T13:50:28.659Z,17.49
2017-03-15T13:51:39.655Z,17.49
2017-03-15T13:52:50.903Z,17.4
2017-03-15T13:54:01.895Z,17.45
2017-03-15T13:55:12.896Z,17.43
2017-03-15T13:56:23.892Z,17.4
2017-03-15T13:57:34.890Z,17.45
2017-03-15T13:58:46.139Z,17.43
2017-03-15T13:59:57.140Z,17.42
2017-03-15T14:01:08.141Z,17.42
2017-03-15T14:02:19.140Z,17.42
2017-03-15T14:03:30.131Z,17.43
2017-03-15T14:04:41.328Z,17.58
2017-03-15T14:05:52.323Z,17.5
2017-03-15T14:07:03.332Z,17.54
2017-03-15T14:08:14.324Z,17.52
2017-03-15T14:09:25.569Z,17.49
2017-03-15T14:10:36.556Z,17.3
2017-03-15T14:11:47.746Z,17.24
2017-03-15T14:12:58.740Z,17.24
2017-03-15T14:14:09.736Z,17.25
2017-03-15T14:15:20.735Z,17.18
2017-03-15T14:16:31.719Z,17.21
2017-03-15T14:17:42.718Z,17.15
2017-03-15T14:18:54.112Z,17.02
2017-03-15T14:20:05.349Z,16.97
2017-03-15T14:21:16.341Z,17.03
2017-03-15T14:22:27.331Z,17.02
2017-03-15T14:23:38.527Z,16.85
2017-03-15T14:24:49.517Z,16.77
2017-03-15T14:26:00.561Z,16.81
2017-03-15T14:27:11.562Z,16.94
2017-03-15T14:28:22.560Z,16.8
2017-03-15T14:29:33.550Z,16.7
2017-03-15T14:30:44.573Z,16.77
2017-03-15T14:31:55.610Z,16.84
2017-03-15T14:33:06.604Z,16.82
2017-03-15T14:34:17.802Z,16.84
2017-03-15T14:35:28.797Z,16.87
2017-03-15T14:36:39.802Z,16.87
2017-03-15T14:37:51.072Z,16.81
2017-03-15T14:39:02.066Z,16.85
2017-03-15T14:40:13.054Z,16.88
2017-03-15T14:41:24.253Z,16.91
2017-03-15T14:42:35.248Z,16.88
2017-03-15T14:43:46.680Z,16.84
2017-03-15T14:44:57.666Z,16.67
2017-03-15T14:46:08.661Z,16.72
2017-03-15T14:47:19.649Z,16.7
2017-03-15T14:48:30.646Z,16.63
2017-03-15T14:49:41.694Z,16.72
2017-03-15T14:50:52.691Z,16.74
2017-03-15T14:52:03.691Z,16.8
2017-03-15T14:53:14.875Z,16.63
2017-03-15T14:54:26.074Z,16.7
2017-03-15T14:55:37.577Z,16.66
2017-03-15T14:56:48.568Z,16.65
2017-03-15T14:57:59.763Z,16.63
2017-03-15T14:59:10.744Z,16.66
2017-03-15T15:00:21.938Z,16.65
2017-03-15T15:01:33.381Z,16.66
2017-03-15T15:02:44.575Z,16.58
2017-03-15T15:03:55.570Z,16.57
2017-03-15T15:05:06.565Z,16.48
2017-03-15T15:06:17.555Z,16.4
2017-03-15T15:07:28.601Z,16.37
2017-03-15T15:08:39.591Z,16.34
2017-03-15T15:09:50.579Z,16.21
2017-03-15T15:11:01.571Z,16.11
2017-03-15T15:12:12.569Z,16.17
2017-03-15T15:13:23.619Z,16.3
2017-03-15T15:14:34.610Z,16.33
2017-03-15T15:15:45.602Z,16.3
2017-03-15T15:16:56.588Z,16.3
2017-03-15T15:18:07.588Z,16.3
2017-03-15T15:19:18.828Z,16.32
2017-03-15T15:20:30.023Z,16.33
2017-03-15T15:21:41.019Z,16.26
2017-03-15T15:22:52.015Z,16.25
2017-03-15T15:24:03.219Z,16.18
2017-03-15T15:25:14.257Z,16.11
2017-03-15T15:26:25.255Z,16.08
2017-03-15T15:27:36.249Z,16.14
2017-03-15T15:28:47.647Z,16.06
2017-03-15T15:29:58.843Z,16.1
2017-03-15T15:31:09.890Z,16.1
2017-03-15T15:32:21.083Z,16.04
2017-03-15T15:33:32.073Z,16.04